Time;durP1;ratioP1;P1;durP2;ratioP2;P2;SDS_P1;SDS_P2;PMS_P1;PMS_P2;Temp;Humidity;BMP_temperature;BMP_pressure;BME280_temperature;BME280_humidity;BME280_pressure;Samples;Min_cycle;Max_cycle;Signal;HPM_P1;HPM_P2
2021/01/05 00:00:01;;;;;;;11.43;4.20;;;;;;;1.47;92.14;101486.31;5159714;27;20491;-61
2021/01/05 00:02:28;;;;;;;7.90;3.40;;;;;;;1.59;92.04;101488.16;5158173;27;20505;-63
2021/01/05 00:04:55;;;;;;;11.33;3.53;;;;;;;1.53;91.90;101483.41;5158988;27;20479;-61
2021/01/05 00:07:21;;;;;;;7.77;3.10;;;;;;;1.38;91.93;101489.66;5159724;27;20459;-61
2021/01/05 00:09:49;;;;;;;5.83;3.50;;;;;;;1.61;91.70;101489.19;5157480;27;20927;-61
2021/01/05 00:12:17;;;;;;;10.67;3.60;;;;;;;1.55;91.86;101488.63;5159632;27;20458;-62
2021/01/05 00:14:45;;;;;;;8.13;3.37;;;;;;;1.58;91.75;101483.81;5157531;27;20484;-61
2021/01/05 00:17:12;;;;;;;11.10;3.20;;;;;;;1.58;92.09;101484.72;5159287;27;20459;-61
2021/01/05 00:19:39;;;;;;;9.90;3.50;;;;;;;1.66;92.11;101487.94;5157248;27;20463;-61
2021/01/05 00:22:07;;;;;;;9.17;3.87;;;;;;;1.69;92.40;101489.88;5159330;27;20830;-61
2021/01/05 00:24:34;;;;;;;4.97;2.93;;;;;;;1.73;92.19;101487.75;5151462;27;20481;-61
2021/01/05 00:27:01;;;;;;;8.57;3.20;;;;;;;1.66;91.70;101493.03;5158951;27;20467;-61
2021/01/05 00:29:28;;;;;;;8.17;2.90;;;;;;;1.71;91.81;101489.25;5157873;27;20907;-61
2021/01/05 00:32:10;;;;;;;10.60;3.67;;;;;;;1.85;91.55;101489.59;5158931;27;20425;-61
2021/01/05 00:34:37;;;;;;;6.73;3.63;;;;;;;1.82;92.17;101489.31;5157069;27;20566;-61
2021/01/05 00:37:04;;;;;;;8.63;4.00;;;;;;;1.86;91.65;101492.25;5158827;27;20518;-61
2021/01/05 00:39:30;;;;;;;9.03;4.27;;;;;;;1.98;92.04;101482.28;5157472;27;20479;-61
2021/01/05 00:41:57;;;;;;;7.63;2.60;;;;;;;1.91;91.05;101484.13;5158999;27;20545;-61
2021/01/05 00:44:24;;;;;;;7.83;3.50;;;;;;;1.91;91.14;101485.03;5156953;27;20489;-61
2021/01/05 00:46:51;;;;;;;6.03;3.17;;;;;;;1.92;91.04;101480.84;5158739;27;20453;-62
2021/01/05 00:49:18;;;;;;;5.80;2.93;;;;;;;1.84;91.46;101483.59;5156771;27;20482;-61
2021/01/05 00:51:44;;;;;;;5.20;2.87;;;;;;;1.87;91.46;101488.97;5158767;27;20886;-62
2021/01/05 00:54:11;;;;;;;10.30;3.13;;;;;;;1.91;91.34;101490.13;5156057;27;20483;-62
2021/01/05 00:56:38;;;;;;;4.80;2.90;;;;;;;1.91;92.00;101490.13;5158436;27;20471;-61
2021/01/05 00:59:04;;;;;;;4.80;2.20;;;;;;;1.81;91.58;101484.97;5157147;27;20475;-61
2021/01/05 01:01:32;;;;;;;4.23;2.33;;;;;;;1.81;91.33;101483.34;5158425;27;20464;-61
2021/01/05 01:03:59;;;;;;;7.77;3.20;;;;;;;1.93;91.38;101490.25;5156760;27;20481;-61
2021/01/05 01:06:25;;;;;;;6.03;2.73;;;;;;;1.89;91.01;101478.91;5158490;27;20573;-61
2021/01/05 01:08:52;;;;;;;7.90;2.87;;;;;;;1.95;91.42;101481.13;5150964;27;20556;-61
2021/01/05 01:11:21;;;;;;;8.47;3.00;;;;;;;1.98;90.58;101487.38;5157971;27;20900;-61
2021/01/05 01:13:47;;;;;;;7.07;3.80;;;;;;;1.93;90.46;101482.63;5156867;27;20479;-61
2021/01/05 01:16:14;;;;;;;9.80;3.10;;;;;;;1.83;90.54;101480.91;5158254;27;20522;-61
2021/01/05 01:18:41;;;;;;;8.00;3.10;;;;;;;1.86;90.51;101476.97;5156703;27;20562;-61
2021/01/05 01:21:08;;;;;;;7.03;3.37;;;;;;;1.96;90.98;101483.81;5158229;27;21291;-61
2021/01/05 01:23:35;;;;;;;6.63;3.00;;;;;;;1.76;90.96;101484.56;5156465;27;20825;-61
2021/01/05 01:26:01;;;;;;;5.83;3.00;;;;;;;1.91;91.12;101485.03;5157830;27;20503;-61
2021/01/05 01:28:28;;;;;;;4.77;3.03;;;;;;;1.75;90.57;101482.78;5156776;27;20908;-61
2021/01/05 01:30:55;;;;;;;4.70;3.17;;;;;;;1.89;90.44;101486.53;5157745;27;20551;-61
2021/01/05 01:33:21;;;;;;;4.80;2.80;;;;;;;1.84;90.15;101483.59;5156176;27;21192;-61
2021/01/05 01:35:49;;;;;;;9.20;3.33;;;;;;;1.88;90.49;101488.22;5157860;27;20467;-62
2021/01/05 01:38:15;;;;;;;4.43;2.70;;;;;;;1.98;89.94;101489.91;5156411;27;20487;-61
2021/01/05 01:40:43;;;;;;;8.93;4.57;;;;;;;2.03;89.99;101490.31;5157867;27;20983;-61
2021/01/05 01:43:10;;;;;;;8.10;3.70;;;;;;;1.97;90.06;101488.13;5156484;27;20555;-61
2021/01/05 01:45:38;;;;;;;4.90;2.90;;;;;;;1.92;89.85;101485.91;5157780;27;20482;-61
2021/01/05 01:48:08;;;;;;;5.33;2.93;;;;;;;1.90;89.97;101490.91;5155891;27;20442;-61
2021/01/05 01:50:35;;;;;;;5.83;2.73;;;;;;;1.81;90.20;101482.44;5158022;27;20455;-61
2021/01/05 01:53:32;;;;;;;9.03;3.10;;;;;;;1.73;90.56;101482.66;5155872;27;20839;-61
2021/01/05 01:56:09;;;;;;;6.50;3.10;;;;;;;1.68;90.60;101491.50;5156248;27;20471;-61
2021/01/05 01:58:52;;;;;;;5.47;2.83;;;;;;;1.69;90.68;101493.28;5156354;27;20935;-62
2021/01/05 02:01:29;;;;;;;5.00;2.50;;;;;;;1.61;90.71;101487.56;5157336;27;20463;-61
2021/01/05 02:04:00;;;;;;;8.35;3.88;;;;;;;1.60;91.03;101484.84;5155822;27;20482;-61
2021/01/05 02:06:31;;;;;;;7.03;3.40;;;;;;;1.51;91.33;101489.09;5159720;27;20221;-61
2021/01/05 02:09:09;;;;;;;6.73;2.50;;;;;;;1.56;91.21;101485.31;5160427;27;20449;-61
2021/01/05 02:11:54;;;;;;;4.97;2.60;;;;;;;1.57;91.16;101480.38;5141077;27;20482;-61
2021/01/05 02:14:36;;;;;;;8.60;3.30;;;;;;;1.74;91.21;101478.44;5139223;27;20575;-61
2021/01/05 02:17:36;;;;;;;10.77;3.97;;;;;;;1.86;90.65;101486.28;5140937;27;20922;-61
2021/01/05 02:20:06;;;;;;;7.77;3.80;;;;;;;1.90;90.91;101483.25;5137292;27;20530;-61
2021/01/05 02:22:42;;;;;;;7.47;4.00;;;;;;;1.70;90.41;101477.28;5148152;27;20483;-61
2021/01/05 02:25:13;;;;;;;7.83;3.60;;;;;;;1.82;90.76;101484.22;5161257;27;20504;-61
2021/01/05 02:27:45;;;;;;;7.50;3.40;;;;;;;1.82;91.25;101479.13;5160197;27;20491;-62
2021/01/05 02:30:16;;;;;;;5.20;2.90;;;;;;;1.72;90.36;101480.88;5161743;27;20471;-61
2021/01/05 02:32:46;;;;;;;9.60;3.80;;;;;;;1.74;90.70;101491.16;5153864;27;20462;-62
2021/01/05 02:35:19;;;;;;;8.90;3.37;;;;;;;1.71;90.79;101484.19;5161128;27;20550;-61
2021/01/05 02:37:56;;;;;;;9.70;5.47;;;;;;;1.84;90.96;101482.72;5154859;27;20534;-61
2021/01/05 02:40:32;;;;;;;5.97;3.33;;;;;;;1.75;90.79;101483.66;5161592;27;20569;-61
2021/01/05 02:43:29;;;;;;;10.30;4.33;;;;;;;1.75;90.37;101481.13;5159976;27;20761;-62
2021/01/05 02:46:09;;;;;;;9.53;3.93;;;;;;;1.72;90.80;101479.97;5160834;27;20499;-61
2021/01/05 02:49:02;;;;;;;13.87;5.43;;;;;;;1.69;90.84;101480.56;5159330;27;20485;-61
2021/01/05 02:52:00;;;;;;;5.53;2.90;;;;;;;1.65;90.92;101486.16;5161141;27;20550;-61
2021/01/05 02:55:20;;;;;;;7.83;3.93;;;;;;;1.68;90.96;101476.25;5158942;27;20571;-61
2021/01/05 02:57:51;;;;;;;9.30;4.27;;;;;;;1.63;90.78;101484.25;5098648;27;20506;-62
2021/01/05 03:00:49;;;;;;;10.93;5.03;;;;;;;1.74;90.80;101475.88;5161068;27;20800;-61
2021/01/05 03:03:29;;;;;;;12.37;4.63;;;;;;;1.80;90.46;101478.09;5158686;27;20538;-61
2021/01/05 03:06:25;;;;;;;10.60;4.47;;;;;;;1.72;91.00;101472.31;5160292;27;20478;-61
2021/01/05 03:09:14;;;;;;;25.73;7.87;;;;;;;1.78;90.99;101472.00;5111929;27;20554;-61
2021/01/05 03:11:51;;;;;;;8.53;3.90;;;;;;;1.63;91.21;101464.75;5140102;27;20426;-61
2021/01/05 03:14:23;;;;;;;26.53;9.60;;;;;;;1.75;91.80;101473.50;5138319;27;20486;-61
2021/01/05 03:16:55;;;;;;;14.27;4.97;;;;;;;1.84;91.38;101465.78;5139959;27;20483;-62
2021/01/05 03:19:27;;;;;;;9.23;4.80;;;;;;;1.81;90.97;101467.16;5137526;27;20451;-62
2021/01/05 03:21:57;;;;;;;9.20;4.30;;;;;;;1.75;90.85;101467.53;5139522;27;20463;-61
2021/01/05 03:24:26;;;;;;;8.57;3.90;;;;;;;1.79;91.06;101461.06;5134469;27;20472;-62
2021/01/05 03:26:53;;;;;;;6.53;3.70;;;;;;;1.83;90.66;101470.72;5139708;27;20511;-61
2021/01/05 03:29:20;;;;;;;7.27;4.03;;;;;;;1.83;90.73;101465.63;5138104;27;20258;-62
2021/01/05 03:31:50;;;;;;;76.27;22.20;;;;;;;1.96;91.23;101468.53;5139325;27;20463;-61
2021/01/05 03:34:18;;;;;;;10.33;4.47;;;;;;;1.93;91.13;101462.25;5137689;27;20567;-61
2021/01/05 03:36:45;;;;;;;12.07;5.17;;;;;;;1.94;90.68;101470.03;5139695;27;20472;-61
2021/01/05 03:39:12;;;;;;;10.13;4.80;;;;;;;2.09;90.53;101464.47;5146018;27;20446;-62
2021/01/05 03:41:39;;;;;;;7.80;4.13;;;;;;;2.10;89.86;101468.84;5160398;27;20534;-61
2021/01/05 03:44:05;;;;;;;8.07;3.30;;;;;;;2.02;89.96;101471.59;5158056;27;20482;-62
2021/01/05 03:46:32;;;;;;;6.53;3.50;;;;;;;1.88;90.39;101472.03;5160023;27;20469;-61
2021/01/05 03:48:59;;;;;;;11.33;4.10;;;;;;;1.66;91.02;101466.69;5158248;27;20522;-61
2021/01/05 03:51:26;;;;;;;8.33;4.10;;;;;;;1.65;90.96;101463.28;5160174;27;20456;-61
2021/01/05 03:53:53;;;;;;;7.43;3.70;;;;;;;1.53;91.24;101472.34;5158152;27;20513;-61
2021/01/05 03:56:19;;;;;;;6.70;3.67;;;;;;;1.54;91.60;101471.59;5159291;27;20494;-61
2021/01/05 03:58:46;;;;;;;7.60;4.07;;;;;;;1.60;91.39;101470.47;5157645;27;20479;-61
2021/01/05 04:01:13;;;;;;;9.53;4.10;;;;;;;1.56;91.18;101470.06;5159840;27;20463;-61
2021/01/05 04:03:40;;;;;;;7.00;4.17;;;;;;;1.78;90.92;101462.69;5158482;27;20916;-62
2021/01/05 04:06:08;;;;;;;6.30;3.60;;;;;;;1.75;90.16;101463.31;5159407;27;20579;-61
2021/01/05 04:08:35;;;;;;;7.10;3.67;;;;;;;1.90;90.00;101470.53;5157960;27;20558;-61
2021/01/05 04:11:01;;;;;;;6.50;3.33;;;;;;;1.85;90.34;101469.22;5159709;27;20452;-61
2021/01/05 04:13:28;;;;;;;6.43;3.10;;;;;;;1.79;89.98;101464.47;5157891;27;21007;-62
2021/01/05 04:15:55;;;;;;;7.50;3.30;;;;;;;1.80;90.16;101465.38;5158929;27;20477;-61
2021/01/05 04:18:22;;;;;;;6.40;3.50;;;;;;;1.74;90.69;101466.63;5157858;27;20480;-61
2021/01/05 04:20:49;;;;;;;7.23;3.50;;;;;;;1.81;90.08;101469.72;5159593;27;20485;-61
2021/01/05 04:23:16;;;;;;;6.10;2.80;;;;;;;1.71;90.59;101465.47;5157874;27;20465;-61
2021/01/05 04:25:43;;;;;;;5.40;2.97;;;;;;;1.71;90.39;101461.28;5158983;27;20545;-61
2021/01/05 04:28:09;;;;;;;7.90;3.93;;;;;;;1.77;90.87;101462.56;5157832;27;20508;-61
2021/01/05 04:30:37;;;;;;;12.97;5.77;;;;;;;1.85;90.84;101469.22;5157888;27;20527;-61
2021/01/05 04:33:07;;;;;;;9.93;5.20;;;;;;;1.88;90.35;101467.84;5156224;27;20832;-61
2021/01/05 04:35:34;;;;;;;11.83;3.90;;;;;;;1.77;90.47;101466.00;5158296;27;21011;-61
2021/01/05 04:38:01;;;;;;;8.23;3.60;;;;;;;1.85;90.33;101471.78;5156919;27;20469;-61
2021/01/05 04:40:32;;;;;;;9.30;4.00;;;;;;;1.88;90.42;101469.50;5158516;27;20450;-61
2021/01/05 04:43:08;;;;;;;12.87;3.90;;;;;;;1.73;90.52;101469.03;5156983;27;20529;-61
2021/01/05 04:45:39;;;;;;;9.00;4.00;;;;;;;1.75;91.66;101470.94;5158130;27;20467;-61
2021/01/05 04:48:18;;;;;;;15.33;4.03;;;;;;;1.55;91.05;101468.28;5156799;27;20943;-62
2021/01/05 04:50:49;;;;;;;18.20;5.20;;;;;;;1.69;91.63;101472.06;5158408;27;20915;-61
2021/01/05 04:53:21;;;;;;;10.50;3.87;;;;;;;1.63;91.60;101477.50;5156694;27;20534;-61
2021/01/05 04:55:54;;;;;;;12.70;5.73;;;;;;;1.70;91.57;101469.63;5157802;27;20476;-61
2021/01/05 04:58:25;;;;;;;18.13;4.60;;;;;;;1.55;91.66;101474.28;5157016;27;20479;-61
2021/01/05 05:00:53;;;;;;;21.17;5.73;;;;;;;1.67;91.75;101469.38;5158299;27;20470;-62
2021/01/05 05:03:37;;;;;;;22.37;5.67;;;;;;;1.62;91.67;101468.06;5157446;27;20482;-61
2021/01/05 05:06:20;;;;;;;13.30;3.70;;;;;;;1.73;91.21;101475.00;5157561;27;20554;-61
2021/01/05 05:09:00;;;;;;;10.07;4.13;;;;;;;1.70;91.40;101479.81;5152397;27;20559;-61
2021/01/05 05:11:33;;;;;;;7.10;3.13;;;;;;;1.64;91.47;101481.81;5158001;27;20717;-61
2021/01/05 05:14:02;;;;;;;16.23;5.53;;;;;;;1.72;91.38;101478.31;5155890;27;20532;-61
2021/01/05 05:16:57;;;;;;;7.50;3.80;;;;;;;1.64;91.57;101483.47;5157717;27;20477;-61
2021/01/05 05:19:33;;;;;;;10.90;4.93;;;;;;;1.60;91.87;101480.66;5156152;27;20457;-61
2021/01/05 05:22:04;;;;;;;11.50;5.03;;;;;;;1.71;91.63;101488.34;5157787;27;20542;-61
2021/01/05 05:24:40;;;;;;;10.30;4.70;;;;;;;1.87;91.09;101483.88;5154536;27;20490;-61
2021/01/05 05:27:16;;;;;;;9.90;3.70;;;;;;;1.89;91.04;101478.91;5158041;27;20458;-61
2021/01/05 05:29:45;;;;;;;7.00;3.90;;;;;;;1.64;91.26;101479.28;5156372;27;20554;-61
2021/01/05 05:32:28;;;;;;;16.13;5.13;;;;;;;1.78;91.01;101487.25;5157663;27;20471;-61
2021/01/05 05:35:15;;;;;;;11.20;4.33;;;;;;;1.68;90.90;101486.44;5156906;27;20503;-61
2021/01/05 05:37:46;;;;;;;8.33;4.10;;;;;;;1.76;90.67;101484.56;5155957;27;20454;-61
2021/01/05 05:40:18;;;;;;;6.60;3.40;;;;;;;1.83;91.02;101486.00;5157132;27;20497;-61
2021/01/05 05:43:13;;;;;;;6.00;3.10;;;;;;;1.64;91.59;101492.00;5135488;27;20480;-62
2021/01/05 05:45:43;;;;;;;4.93;2.83;;;;;;;1.81;90.71;101484.97;5136226;27;20564;-61
2021/01/05 05:48:18;;;;;;;7.27;3.00;;;;;;;1.61;90.57;101484.09;5134903;27;20570;-61
2021/01/05 05:50:53;;;;;;;6.43;3.57;;;;;;;1.75;90.47;101487.88;5136659;27;20451;-61
2021/01/05 05:53:24;;;;;;;6.70;3.03;;;;;;;1.64;90.58;101489.44;5134956;27;20567;-61
2021/01/05 05:55:55;;;;;;;6.70;3.40;;;;;;;1.62;90.92;101490.97;5136062;27;20515;-61
2021/01/05 05:58:25;;;;;;;4.30;2.87;;;;;;;1.67;91.01;101488.81;5135051;27;20500;-61
2021/01/05 06:00:54;;;;;;;6.90;3.70;;;;;;;1.54;90.83;101489.41;5136589;27;20466;-61
2021/01/05 06:03:23;;;;;;;8.77;4.47;;;;;;;1.64;91.23;101494.53;5143909;27;20558;-61
2021/01/05 06:05:50;;;;;;;7.93;3.70;;;;;;;1.56;91.38;101490.41;5156827;27;20783;-61
2021/01/05 06:08:18;;;;;;;8.07;3.33;;;;;;;1.71;90.95;101496.91;5151596;27;20558;-61
2021/01/05 06:10:46;;;;;;;4.67;2.87;;;;;;;1.55;90.58;101488.63;5157035;27;20454;-61
2021/01/05 06:13:13;;;;;;;4.43;2.30;;;;;;;1.46;90.65;101494.69;5156016;27;20465;-61
2021/01/05 06:15:40;;;;;;;5.33;3.33;;;;;;;1.54;90.76;101497.03;5157115;27;20438;-61
2021/01/05 06:18:09;;;;;;;7.33;2.80;;;;;;;1.48;91.14;101498.25;5155401;27;20466;-61
2021/01/05 06:20:35;;;;;;;7.00;3.50;;;;;;;1.69;91.00;101506.03;5157098;27;20459;-61
2021/01/05 06:23:02;;;;;;;12.40;4.43;;;;;;;1.57;91.06;101502.38;5155542;27;20499;-61
2021/01/05 06:25:29;;;;;;;8.33;4.30;;;;;;;1.63;91.21;101505.47;5157003;27;20504;-61
2021/01/05 06:27:55;;;;;;;14.30;3.90;;;;;;;1.52;91.11;101503.59;5155411;27;20814;-61
2021/01/05 06:30:23;;;;;;;15.83;4.23;;;;;;;1.39;91.08;101507.56;5157072;27;20491;-61
2021/01/05 06:32:50;;;;;;;8.73;3.90;;;;;;;1.54;92.09;101504.66;5155517;27;20834;-61
2021/01/05 06:35:20;;;;;;;14.53;5.67;;;;;;;1.56;91.34;101505.69;5156661;27;20485;-61
2021/01/05 06:37:48;;;;;;;15.17;5.10;;;;;;;1.64;91.11;101507.25;5155153;27;20879;-61
2021/01/05 06:40:18;;;;;;;19.57;5.47;;;;;;;1.63;91.21;101507.13;5156836;27;20914;-61
2021/01/05 06:42:45;;;;;;;10.70;5.23;;;;;;;1.52;91.46;101513.78;5155095;27;20434;-61
2021/01/05 06:45:15;;;;;;;17.80;5.53;;;;;;;1.65;91.32;101515.78;5156574;27;20514;-61
2021/01/05 06:47:42;;;;;;;11.73;5.53;;;;;;;1.69;91.00;101518.75;5155301;27;20452;-62
2021/01/05 06:50:11;;;;;;;21.90;5.80;;;;;;;1.72;91.07;101513.94;5156652;27;20987;-61
2021/01/05 06:52:38;;;;;;;37.20;7.20;;;;;;;1.59;91.26;101522.09;5155775;27;20492;-61
2021/01/05 06:55:05;;;;;;;21.77;5.47;;;;;;;1.63;90.91;101518.19;5160241;27;20582;-61
2021/01/05 06:57:32;;;;;;;17.40;6.20;;;;;;;1.70;91.26;101522.19;5159415;27;20863;-61
2021/01/05 06:59:58;;;;;;;16.13;5.13;;;;;;;1.66;91.05;101518.47;5160596;27;20533;-61
2021/01/05 07:02:25;;;;;;;8.03;4.40;;;;;;;1.80;91.14;101524.78;5160619;27;20564;-61
2021/01/05 07:04:52;;;;;;;7.57;4.23;;;;;;;1.83;91.56;101527.63;5158491;27;20546;-61
2021/01/05 07:07:19;;;;;;;10.10;4.23;;;;;;;1.97;90.96;101516.13;5160649;27;20880;-61
2021/01/05 07:09:46;;;;;;;8.73;4.40;;;;;;;1.90;91.43;101521.44;5158568;27;20475;-61
2021/01/05 07:12:12;;;;;;;9.57;5.43;;;;;;;1.98;91.34;101523.00;5160426;27;20447;-61
2021/01/05 07:14:39;;;;;;;10.10;5.10;;;;;;;2.04;91.36;101517.56;5158392;27;20790;-61
2021/01/05 07:17:05;;;;;;;11.13;5.57;;;;;;;2.09;91.44;101520.50;5160143;27;20557;-61
2021/01/05 07:19:32;;;;;;;8.50;4.80;;;;;;;2.03;91.20;101513.22;5158542;27;20481;-61
2021/01/05 07:21:58;;;;;;;10.00;5.63;;;;;;;2.07;91.28;101524.56;5160485;27;20760;-61
2021/01/05 07:24:26;;;;;;;9.30;5.50;;;;;;;2.16;90.57;101522.84;5157937;27;20582;-61
2021/01/05 07:26:52;;;;;;;9.90;5.10;;;;;;;2.21;90.72;101535.97;5159937;27;20927;-61
2021/01/05 07:29:22;;;;;;;8.80;5.20;;;;;;;2.17;90.92;101534.81;5158703;27;20449;-61
2021/01/05 07:31:49;;;;;;;10.50;5.77;;;;;;;2.08;90.73;101541.63;5159875;27;20530;-61
2021/01/05 07:34:16;;;;;;;9.70;5.40;;;;;;;2.13;90.64;101543.84;5157926;27;20483;-61
2021/01/05 07:36:45;;;;;;;13.77;5.90;;;;;;;2.18;90.52;101546.78;5159833;27;20991;-61
2021/01/05 07:39:20;;;;;;;10.00;5.70;;;;;;;2.12;90.98;101536.97;5158205;27;20485;-61
2021/01/05 07:41:48;;;;;;;9.87;4.43;;;;;;;2.03;90.55;101541.22;5159841;27;20445;-61
2021/01/05 07:44:15;;;;;;;11.03;5.33;;;;;;;2.15;91.27;101533.78;5157781;27;20506;-61
2021/01/05 07:46:41;;;;;;;11.63;6.17;;;;;;;2.24;90.41;101544.78;5159793;27;20479;-61
2021/01/05 07:49:08;;;;;;;12.30;6.50;;;;;;;2.12;90.41;101538.59;5157764;27;20485;-61
2021/01/05 07:51:35;;;;;;;13.07;7.10;;;;;;;2.22;90.37;101545.41;5159622;27;20884;-61
2021/01/05 07:54:02;;;;;;;12.37;5.63;;;;;;;2.29;90.31;101538.44;5157590;27;20506;-61
2021/01/05 07:56:29;;;;;;;13.90;6.40;;;;;;;2.22;90.62;101542.84;5159024;27;20771;-61
2021/01/05 07:58:56;;;;;;;7.57;5.00;;;;;;;2.23;90.29;101545.56;5158130;27;20479;-61
2021/01/05 08:01:29;;;;;;;9.77;5.20;;;;;;;2.10;90.79;101540.13;5159448;27;20470;-61
2021/01/05 08:03:56;;;;;;;10.17;5.47;;;;;;;2.20;90.62;101542.72;5157272;27;20555;-61
2021/01/05 08:06:23;;;;;;;9.90;5.03;;;;;;;2.15;90.32;101539.78;5159160;27;20950;-61
2021/01/05 08:08:50;;;;;;;10.83;5.27;;;;;;;2.22;90.65;101546.31;5157002;27;20479;-61
2021/01/05 08:11:16;;;;;;;10.97;5.20;;;;;;;2.21;90.09;101543.63;5159131;27;20451;-61
2021/01/05 08:13:43;;;;;;;12.80;5.20;;;;;;;2.21;90.46;101541.94;5157856;27;20585;-61
2021/01/05 08:16:13;;;;;;;8.30;4.90;;;;;;;2.19;90.23;101542.59;5158901;27;20486;-61
2021/01/05 08:18:40;;;;;;;8.87;5.17;;;;;;;2.17;90.60;101552.66;5157654;27;20859;-61
2021/01/05 08:21:06;;;;;;;9.70;6.07;;;;;;;2.30;90.28;101544.41;5158929;27;20542;-61
2021/01/05 08:23:33;;;;;;;10.13;5.53;;;;;;;2.42;90.02;101550.59;5157371;27;20560;-61
2021/01/05 08:26:00;;;;;;;7.70;4.40;;;;;;;2.19;90.33;101546.03;5158490;27;20506;-61
2021/01/05 08:28:26;;;;;;;9.87;4.77;;;;;;;2.25;90.55;101545.69;5157769;27;20513;-61
2021/01/05 08:30:53;;;;;;;8.20;5.50;;;;;;;2.39;90.93;101546.88;5158753;27;20546;-61
2021/01/05 08:33:20;;;;;;;13.40;5.63;;;;;;;2.48;90.03;101552.78;5157182;27;20497;-61
2021/01/05 08:35:48;;;;;;;11.90;6.30;;;;;;;2.46;89.95;101554.28;5158314;27;20557;-61
2021/01/05 08:38:14;;;;;;;10.50;5.60;;;;;;;2.42;90.19;101548.03;5156673;27;20546;-61
2021/01/05 08:40:41;;;;;;;12.47;6.70;;;;;;;2.33;90.60;101549.78;5158320;27;20457;-61
2021/01/05 08:43:09;;;;;;;12.10;5.47;;;;;;;2.31;90.33;101558.06;5157314;27;20493;-61
2021/01/05 08:45:35;;;;;;;11.33;5.67;;;;;;;2.50;90.01;101556.34;5158146;27;20471;-61
2021/01/05 08:48:02;;;;;;;11.10;5.50;;;;;;;2.41;90.39;101561.53;5156863;27;20482;-61
2021/01/05 08:50:33;;;;;;;11.03;5.77;;;;;;;2.42;90.27;101565.00;5158551;27;20815;-61
2021/01/05 08:53:02;;;;;;;11.47;6.10;;;;;;;2.48;89.93;101573.19;5153881;27;20475;-61
2021/01/05 08:55:29;;;;;;;11.67;5.60;;;;;;;2.48;89.83;101570.63;5158083;27;20483;-61
2021/01/05 08:57:55;;;;;;;11.90;6.07;;;;;;;2.46;89.94;101574.69;5156829;27;20467;-61
2021/01/05 09:00:22;;;;;;;15.10;5.50;;;;;;;2.52;89.89;101567.56;5158185;27;20459;-61
2021/01/05 09:02:49;;;;;;;21.43;10.30;;;;;;;2.56;89.90;101566.19;5156612;27;20544;-61
2021/01/05 09:05:16;;;;;;;37.07;14.47;;;;;;;2.59;90.47;101566.47;5157156;27;20555;-61
2021/01/05 09:07:43;;;;;;;37.47;17.50;;;;;;;2.64;90.45;101564.31;5156062;27;20486;-62
2021/01/05 09:10:16;;;;;;;19.63;9.83;;;;;;;2.65;90.07;101564.44;5157995;27;20451;-61
2021/01/05 09:12:42;;;;;;;15.20;7.57;;;;;;;2.58;90.01;101566.31;5156776;27;20465;-61
2021/01/05 09:15:13;;;;;;;15.03;7.33;;;;;;;2.64;89.72;101569.41;5157285;27;20558;-61
2021/01/05 09:17:43;;;;;;;16.00;7.50;;;;;;;2.57;90.04;101570.53;5156196;27;20473;-61
2021/01/05 09:20:14;;;;;;;8.63;5.20;;;;;;;2.47;89.60;101573.94;5157806;27;20542;-61
2021/01/05 09:22:41;;;;;;;11.90;6.07;;;;;;;2.50;89.97;101569.09;5156414;27;20810;-61
2021/01/05 09:25:09;;;;;;;9.37;5.67;;;;;;;2.51;89.91;101568.34;5157597;27;20472;-61
2021/01/05 09:27:36;;;;;;;12.03;6.13;;;;;;;2.44;90.39;101563.47;5156478;27;20459;-61
2021/01/05 09:30:04;;;;;;;10.90;5.43;;;;;;;2.45;90.07;101564.38;5157681;27;20515;-61
2021/01/05 09:32:34;;;;;;;10.20;5.40;;;;;;;2.48;90.24;101565.53;5155791;27;20455;-62
2021/01/05 09:35:00;;;;;;;15.60;6.37;;;;;;;2.60;90.01;101570.78;5157164;27;20497;-61
2021/01/05 09:37:27;;;;;;;16.60;6.37;;;;;;;2.59;89.60;101566.47;5157811;27;20598;-61
2021/01/05 09:39:53;;;;;;;8.93;4.63;;;;;;;2.55;89.49;101570.41;5157297;27;20455;-61
2021/01/05 09:42:22;;;;;;;8.87;5.00;;;;;;;2.59;89.34;101573.19;5157440;27;20455;-61
2021/01/05 09:44:49;;;;;;;9.90;4.93;;;;;;;2.53;89.60;101569.38;5155893;27;20463;-61
2021/01/05 09:47:19;;;;;;;8.43;5.10;;;;;;;2.68;89.42;101568.91;5157392;27;20454;-61
2021/01/05 09:49:46;;;;;;;7.70;4.20;;;;;;;2.60;89.16;101567.38;5154840;27;20779;-61
2021/01/05 09:52:12;;;;;;;13.30;4.57;;;;;;;2.67;89.13;101567.13;5157435;27;20466;-61
2021/01/05 09:54:39;;;;;;;12.43;5.10;;;;;;;2.74;89.22;101568.53;5154679;27;20563;-61
2021/01/05 09:57:06;;;;;;;9.30;5.20;;;;;;;2.74;89.29;101572.00;5157341;27;20569;-61
2021/01/05 09:59:33;;;;;;;12.90;4.73;;;;;;;2.81;88.97;101571.75;5156023;27;20475;-61
2021/01/05 10:02:02;;;;;;;21.43;9.40;;;;;;;2.77;89.33;101572.25;5156581;27;20459;-61
2021/01/05 10:04:29;;;;;;;45.07;19.77;;;;;;;2.87;89.61;101575.59;5155105;27;20478;-61
2021/01/05 10:06:56;;;;;;;15.20;5.33;;;;;;;2.81;89.08;101571.75;5157083;27;20478;-61
2021/01/05 10:09:22;;;;;;;29.77;13.03;;;;;;;3.07;89.16;101570.56;5155648;27;20479;-61
2021/01/05 10:11:49;;;;;;;13.43;5.30;;;;;;;2.95;89.10;101572.97;5157138;27;20550;-60
2021/01/05 10:14:19;;;;;;;18.07;8.83;;;;;;;2.89;89.35;101571.53;5155308;27;20479;-61
2021/01/05 10:16:53;;;;;;;12.50;6.77;;;;;;;2.84;89.24;101578.78;5157223;27;20481;-61
2021/01/05 10:19:19;;;;;;;7.40;4.20;;;;;;;2.64;88.86;101569.41;5155557;27;20475;-61
2021/01/05 10:21:46;;;;;;;8.80;4.70;;;;;;;2.63;89.03;101567.63;5157079;27;20546;-61
2021/01/05 10:24:14;;;;;;;9.83;4.33;;;;;;;2.83;88.95;101569.34;5155273;27;20472;-61
2021/01/05 10:26:41;;;;;;;19.87;8.10;;;;;;;2.96;89.03;101572.19;5156740;27;20546;-60
2021/01/05 10:29:09;;;;;;;8.50;4.57;;;;;;;2.82;88.76;101565.91;5158909;27;20491;-61
2021/01/05 10:31:37;;;;;;;10.93;5.13;;;;;;;2.81;89.19;101564.13;5160843;27;20462;-61
2021/01/05 10:34:06;;;;;;;8.73;5.20;;;;;;;2.94;89.04;101568.63;5159176;27;20562;-61
2021/01/05 10:36:33;;;;;;;8.37;4.70;;;;;;;2.95;88.61;101572.06;5160882;27;20944;-60
2021/01/05 10:39:06;;;;;;;9.20;4.93;;;;;;;2.96;88.26;101572.19;5159471;27;20503;-61
2021/01/05 10:41:35;;;;;;;9.77;5.50;;;;;;;2.87;88.06;101573.06;5160987;27;20483;-61
2021/01/05 10:44:01;;;;;;;11.60;5.10;;;;;;;2.72;88.65;101573.50;5159087;27;20558;-60
2021/01/05 10:46:28;;;;;;;9.77;4.73;;;;;;;2.80;88.38;101571.63;5161033;27;20494;-61
2021/01/05 10:48:55;;;;;;;8.90;3.93;;;;;;;2.62;88.92;101570.94;5159059;27;20908;-61
2021/01/05 10:51:22;;;;;;;9.30;5.13;;;;;;;2.71;89.05;101571.72;5160928;27;20767;-60
2021/01/05 10:53:49;;;;;;;10.60;4.83;;;;;;;2.62;89.15;101571.81;5159041;27;20762;-61
2021/01/05 10:56:16;;;;;;;11.43;5.97;;;;;;;2.79;89.23;101570.75;5160458;27;20482;-60
2021/01/05 10:58:43;;;;;;;12.50;5.57;;;;;;;2.86;88.91;101576.38;5159351;27;20992;-61
2021/01/05 11:01:10;;;;;;;8.97;5.30;;;;;;;2.79;88.56;101567.28;5160582;27;20441;-61
2021/01/05 11:03:36;;;;;;;11.67;5.90;;;;;;;2.72;88.73;101563.31;5159166;27;20579;-60
2021/01/05 11:06:04;;;;;;;11.97;6.30;;;;;;;2.81;89.00;101558.13;5160066;27;20475;-61
2021/01/05 11:08:32;;;;;;;10.77;5.50;;;;;;;2.59;89.16;101565.56;5158854;27;20481;-60
2021/01/05 11:11:00;;;;;;;14.33;6.77;;;;;;;2.75;88.65;101560.13;5160391;27;20549;-60
2021/01/05 11:13:27;;;;;;;7.80;4.23;;;;;;;2.81;88.36;101568.31;5159192;27;20503;-60
2021/01/05 11:15:53;;;;;;;13.57;6.40;;;;;;;2.83;88.76;101557.47;5160118;27;20484;-61
2021/01/05 11:18:20;;;;;;;8.73;4.90;;;;;;;2.89;88.47;101561.31;5158564;27;20915;-61
2021/01/05 11:20:47;;;;;;;8.40;4.20;;;;;;;2.80;88.38;101554.69;5160175;27;20434;-61
2021/01/05 11:23:13;;;;;;;4.87;3.33;;;;;;;2.60;89.02;101552.09;5158485;27;20923;-61
2021/01/05 11:25:41;;;;;;;7.30;4.17;;;;;;;2.55;89.33;101550.00;5160047;27;20570;-61
2021/01/05 11:28:07;;;;;;;6.90;3.50;;;;;;;2.34;89.48;101548.13;5158461;27;21139;-60
2021/01/05 11:30:38;;;;;;;6.37;3.20;;;;;;;2.34;89.79;101540.47;5160249;27;20546;-60
2021/01/05 11:33:05;;;;;;;3.83;2.50;;;;;;;2.06;89.31;101536.44;5158210;27;20503;-61
2021/01/05 11:35:31;;;;;;;5.57;3.47;;;;;;;2.12;89.82;101543.69;5159559;27;20829;-61
2021/01/05 11:37:58;;;;;;;7.33;3.40;;;;;;;2.27;89.51;101550.13;5158410;27;20550;-61
2021/01/05 11:40:25;;;;;;;7.83;3.40;;;;;;;2.40;89.05;101543.56;5159493;27;20531;-61